Roseau, MN

10:57 PM CDT on August 28, 2016 (GMT -0500)
Roseau Municipal-Billberg | | Change Station

Elev 1060 ft 48.86 °N, 95.70 °W | Updated 3 minutes ago

Clear
Clear
70 °F
Feels Like 70 °F
N
10
Wind Variable Wind from SE

Today
High -- | Low -- °F
--% Chance of Precip.
Yesterday
High -- | Low -- °F
Precip. -- in
Pressure 29.99 in
Visibility 10.0 miles
Clouds Clear
Dew Point 64 °F
Humidity 83%
Rainfall 0.18 in
Snow Depth Not available.
6:34 AM 8:11 PM
Waning Crescent, 11% visible
METAR KROX 290354Z AUTO 14009KT 10SM VCTS CLR 21/18 A2999 RMK AO2 LTG DSNT ALQDS
Pressure 29.99 in
Visibility 10.0 miles
Clouds Clear
Dew Point 64 °F
Humidity 83%
Rainfall 0.18 in
Snow Depth Not available.
6:34 AM 8:11 PM
Waning Crescent, 11% visible
METAR KROX 290354Z AUTO 14009KT 10SM VCTS CLR 21/18 A2999 RMK AO2 LTG DSNT ALQDS

10-Day Weather Forecast

Almanac

Astronomy

Aug. 28, 2016 Rise Set
Actual Time
Civil Twilight
Nautical Twilight
Astronomical Twilight
Moon
Length of Visible Light
Length of Day
Tomorrow will be .
, % of the Moon is Illuminated

Today's Extremes

State Highs State Lows

Community

WunderPhotos

Upload Photos

1,935,783 photos uploaded!

WunderBlog® & News

Nearby

Air Quality

  Air Quality AQ Index Pollutant
Not available.

Snow Depth

Station Depth Elevation

Earthquake Activity

City Distance Mag. Time & Date
Minimum magnitude displayed is 2.5.

Coastal Water Temperatures

Place Temperature

Stations

Nearby Weather Stations

Station Location Temp. Windchill Dew Point Humidity Wind Precip. Elev Updated Type
                   

Watches & Warnings

There are currently no watches in effect.